Time;durP1;ratioP1;P1;durP2;ratioP2;P2;SDS_P1;SDS_P2;PMS_P1;PMS_P2;Temp;Humidity;BMP_temperature;BMP_pressure;BME280_temperature;BME280_humidity;BME280_pressure;Samples;Min_cycle;Max_cycle;Signal;HPM_P1;HPM_P2
2023/03/31 00:02:20;;;;;;;7.25;1.23;;;10.90;99.90;;;;;;5073202;28;20069;-72
2023/03/31 00:04:51;;;;;;;6.72;1.42;;;10.90;99.90;;;;;;5079827;28;20043;-72
2023/03/31 00:07:20;;;;;;;3.30;0.70;;;10.90;99.90;;;;;;5079143;28;20066;-72
2023/03/31 00:09:47;;;;;;;7.43;1.13;;;10.90;99.90;;;;;;5075039;28;20043;-72
2023/03/31 00:12:14;;;;;;;5.63;0.80;;;10.90;99.90;;;;;;5071340;28;20469;-72
2023/03/31 00:14:41;;;;;;;5.20;1.35;;;10.90;99.90;;;;;;5073852;28;20036;-72
2023/03/31 00:17:08;;;;;;;2.53;0.85;;;10.90;99.90;;;;;;5057596;28;20044;-72
2023/03/31 00:19:34;;;;;;;4.88;0.93;;;10.90;99.90;;;;;;5073624;28;20090;-72
2023/03/31 00:22:04;;;;;;;5.00;0.85;;;10.80;99.90;;;;;;5072627;28;20410;-72
2023/03/31 00:24:31;;;;;;;7.45;1.17;;;10.80;99.90;;;;;;5075019;28;20039;-72
2023/03/31 00:26:58;;;;;;;3.78;0.80;;;10.80;99.90;;;;;;5058054;28;20044;-72
2023/03/31 00:29:25;;;;;;;3.78;1.20;;;10.80;99.90;;;;;;5074440;28;20074;-72
2023/03/31 00:31:51;;;;;;;5.43;0.98;;;10.70;99.90;;;;;;5071880;28;20066;-72
2023/03/31 00:34:19;;;;;;;7.80;1.23;;;10.70;99.90;;;;;;5075238;28;20040;-72
2023/03/31 00:36:47;;;;;;;5.43;1.20;;;10.60;99.90;;;;;;5072069;28;21875;-72
2023/03/31 00:39:16;;;;;;;7.28;0.88;;;10.70;99.90;;;;;;5092367;27;20079;-72
2023/03/31 00:41:42;;;;;;;1.73;0.38;;;10.60;99.90;;;;;;5058898;28;20072;-72
2023/03/31 00:44:11;;;;;;;8.65;1.50;;;10.50;99.90;;;;;;5076989;28;20385;-72
2023/03/31 00:46:43;;;;;;;9.80;1.30;;;10.50;99.90;;;;;;5102544;27;20063;-72
2023/03/31 00:49:49;;;;;;;10.90;2.60;;;10.40;99.90;;;;;;5071905;28;20529;-72
2023/03/31 00:52:31;;;;;;;6.50;1.20;;;10.30;99.90;;;;;;5041823;28;20051;-72
2023/03/31 00:55:08;;;;;;;3.92;1.25;;;10.30;99.90;;;;;;5072734;28;20242;-71
2023/03/31 00:57:38;;;;;;;4.20;1.17;;;10.30;99.90;;;;;;5102677;27;20440;-72
2023/03/31 01:00:15;;;;;;;4.05;1.13;;;10.30;99.90;;;;;;5067859;28;20105;-72
2023/03/31 01:02:51;;;;;;;2.22;0.55;;;10.20;99.90;;;;;;5094477;28;20047;-72
2023/03/31 01:05:21;;;;;;;6.93;1.02;;;10.20;99.90;;;;;;5072130;28;20335;-72
2023/03/31 01:07:51;;;;;;;10.52;1.35;;;10.10;99.90;;;;;;5071277;28;20485;-72
2023/03/31 01:10:17;;;;;;;6.28;1.58;;;10.10;99.90;;;;;;5105279;27;20483;-72
2023/03/31 01:12:46;;;;;;;5.97;1.10;;;10.10;99.90;;;;;;5070602;28;20452;-72
2023/03/31 01:15:12;;;;;;;4.63;0.82;;;10.00;99.90;;;;;;5057471;28;20052;-72
2023/03/31 01:17:43;;;;;;;5.53;0.80;;;10.00;99.90;;;;;;5072716;28;20120;-72
2023/03/31 01:20:45;;;;;;;4.65;1.00;;;10.00;99.90;;;;;;5073572;28;20043;-72
2023/03/31 01:23:49;;;;;;;5.90;0.90;;;9.90;99.90;;;;;;5066936;28;20028;-72
2023/03/31 01:27:00;;;;;;;7.60;1.40;;;9.90;99.90;;;;;;5071301;28;20060;-72
2023/03/31 01:29:56;;;;;;;8.73;0.80;;;9.80;99.90;;;;;;5067852;28;20493;-72
2023/03/31 01:32:50;;;;;;;2.67;0.90;;;9.80;99.90;;;;;;5057697;28;20086;-72
2023/03/31 01:35:31;;;;;;;2.65;0.85;;;9.80;99.90;;;;;;5069146;28;20074;-72
2023/03/31 01:38:18;;;;;;;5.47;1.13;;;9.80;99.90;;;;;;5070289;28;20193;-72
2023/03/31 01:41:16;;;;;;;5.00;0.98;;;9.80;99.90;;;;;;5073060;28;20037;-72
2023/03/31 01:43:47;;;;;;;3.55;0.90;;;9.80;99.90;;;;;;5072115;28;20032;-72
2023/03/31 01:46:34;;;;;;;5.57;0.98;;;9.70;99.90;;;;;;5073363;28;20494;-72
2023/03/31 01:49:17;;;;;;;4.20;0.80;;;9.70;99.90;;;;;;5078211;28;20149;-72
2023/03/31 01:52:01;;;;;;;5.53;0.77;;;9.70;99.90;;;;;;5067466;28;20036;-72
2023/03/31 01:54:43;;;;;;;16.77;1.13;;;9.70;99.90;;;;;;5067342;28;20033;-72
2023/03/31 01:57:16;;;;;;;5.63;0.90;;;9.70;99.90;;;;;;5050590;28;20090;-72
2023/03/31 02:00:08;;;;;;;9.05;1.13;;;9.70;99.90;;;;;;5071811;28;20043;-72
2023/03/31 02:02:43;;;;;;;1.80;1.00;;;9.80;99.90;;;;;;5069570;28;20043;-72
2023/03/31 02:05:13;;;;;;;3.63;0.80;;;9.70;99.90;;;;;;5072244;28;20340;-72
2023/03/31 02:08:36;;;;;;;6.60;1.00;;;9.80;99.90;;;;;;5065425;28;20044;-72
2023/03/31 02:11:02;;;;;;;3.83;0.85;;;9.80;99.90;;;;;;5002958;28;20037;-72
2023/03/31 02:13:29;;;;;;;6.80;0.85;;;9.80;99.90;;;;;;4994538;28;20104;-72
2023/03/31 02:16:00;;;;;;;4.82;1.48;;;9.80;99.90;;;;;;5068313;27;20082;-72
2023/03/31 02:18:29;;;;;;;8.00;0.98;;;9.70;99.90;;;;;;5075964;28;20071;-72
2023/03/31 02:20:57;;;;;;;6.22;1.38;;;9.80;99.90;;;;;;5073167;28;20051;-72
2023/03/31 02:23:28;;;;;;;3.53;0.90;;;9.80;99.90;;;;;;5075012;28;20044;-73
2023/03/31 02:26:16;;;;;;;4.85;1.10;;;9.70;99.90;;;;;;5069512;28;20073;-72
2023/03/31 02:28:42;;;;;;;5.80;1.00;;;9.70;99.90;;;;;;5066507;28;20572;-72
2023/03/31 02:31:33;;;;;;;5.50;1.08;;;9.70;99.90;;;;;;5069214;28;20044;-72
2023/03/31 02:34:00;;;;;;;5.43;1.00;;;9.70;99.90;;;;;;5104696;27;20043;-72
2023/03/31 02:36:26;;;;;;;7.38;1.08;;;9.70;99.90;;;;;;5066712;28;20045;-72
2023/03/31 02:39:01;;;;;;;6.97;1.48;;;9.80;99.90;;;;;;5077806;28;20139;-72
2023/03/31 02:41:26;;;;;;;6.93;1.00;;;9.80;99.90;;;;;;5069150;28;20036;-72
2023/03/31 02:43:52;;;;;;;9.68;1.27;;;9.80;99.90;;;;;;5070361;28;20359;-72
2023/03/31 02:46:18;;;;;;;9.80;1.95;;;9.80;99.90;;;;;;5071756;28;20123;-72
2023/03/31 02:48:50;;;;;;;4.38;1.33;;;9.80;99.90;;;;;;5067243;28;20067;-72
2023/03/31 02:51:39;;;;;;;2.90;0.93;;;9.80;99.90;;;;;;5076016;28;20028;-72
2023/03/31 02:54:26;;;;;;;1.77;0.73;;;9.70;99.90;;;;;;5043030;28;20040;-72
2023/03/31 02:57:33;;;;;;;2.90;0.68;;;9.70;99.90;;;;;;5052344;28;20039;-73
2023/03/31 03:00:34;;;;;;;3.17;1.00;;;9.70;99.90;;;;;;5070883;28;20068;-72
2023/03/31 03:03:26;;;;;;;5.85;1.02;;;9.80;99.90;;;;;;5058470;28;20109;-73
2023/03/31 03:06:04;;;;;;;2.75;0.82;;;9.80;99.90;;;;;;5066724;28;20044;-72
2023/03/31 03:09:03;;;;;;;5.90;0.90;;;9.80;99.90;;;;;;5075512;28;20048;-72
2023/03/31 03:12:05;;;;;;;4.82;0.93;;;9.80;99.90;;;;;;5071606;28;20085;-72
2023/03/31 03:14:46;;;;;;;5.68;1.45;;;9.80;99.90;;;;;;5068108;28;20156;-72
2023/03/31 03:17:31;;;;;;;2.38;0.90;;;9.80;99.90;;;;;;5068493;28;20070;-72
2023/03/31 03:19:59;;;;;;;6.45;1.33;;;9.90;99.90;;;;;;5070243;28;20032;-72
2023/03/31 03:22:26;;;;;;;5.72;1.17;;;9.90;99.90;;;;;;5071598;28;20391;-72
2023/03/31 03:24:52;;;;;;;6.75;1.55;;;9.80;99.90;;;;;;5073467;28;20264;-72
2023/03/31 03:27:21;;;;;;;7.45;1.40;;;9.80;99.90;;;;;;5053451;28;20040;-73
2023/03/31 03:29:47;;;;;;;4.05;1.00;;;9.90;99.90;;;;;;5073885;28;20032;-72
2023/03/31 03:32:12;;;;;;;5.78;1.20;;;9.90;99.90;;;;;;5072449;28;20059;-72
2023/03/31 03:34:38;;;;;;;4.63;1.13;;;9.90;99.90;;;;;;5066050;28;20060;-73
2023/03/31 03:37:04;;;;;;;4.07;0.93;;;9.90;99.90;;;;;;5067572;28;20043;-72
2023/03/31 03:39:30;;;;;;;3.10;1.27;;;9.90;99.90;;;;;;5056253;28;20036;-72
2023/03/31 03:41:56;;;;;;;3.42;1.15;;;9.90;99.90;;;;;;5072040;28;20036;-72
2023/03/31 03:44:22;;;;;;;3.63;1.02;;;10.00;99.90;;;;;;5061425;28;20036;-72
2023/03/31 03:46:47;;;;;;;1.83;0.80;;;10.00;99.90;;;;;;5077627;28;20073;-72
2023/03/31 03:49:13;;;;;;;6.05;1.80;;;10.00;99.90;;;;;;5067514;28;20036;-72
2023/03/31 03:51:38;;;;;;;5.20;1.30;;;10.00;99.90;;;;;;5049219;28;20024;-72
2023/03/31 03:54:04;;;;;;;12.02;1.38;;;10.00;99.90;;;;;;5049356;28;20379;-72
2023/03/31 03:56:30;;;;;;;3.58;1.20;;;10.00;99.90;;;;;;5068131;28;20043;-72
2023/03/31 03:58:56;;;;;;;4.32;1.17;;;10.00;99.90;;;;;;5075010;28;20047;-73
2023/03/31 04:01:22;;;;;;;4.07;1.02;;;10.00;99.90;;;;;;5072070;28;20642;-72
2023/03/31 04:03:48;;;;;;;1.92;0.95;;;10.00;99.90;;;;;;5074992;28;20401;-72
2023/03/31 04:06:13;;;;;;;2.60;0.90;;;10.00;99.90;;;;;;5074677;28;20032;-72
2023/03/31 04:08:39;;;;;;;2.65;0.80;;;10.10;99.90;;;;;;5071704;28;20033;-72
2023/03/31 04:11:16;;;;;;;2.58;1.00;;;10.00;99.90;;;;;;5075185;28;20043;-72
2023/03/31 04:13:43;;;;;;;2.20;0.80;;;10.00;99.90;;;;;;5074020;28;20056;-72
2023/03/31 04:16:08;;;;;;;2.08;0.80;;;10.00;99.90;;;;;;5072771;28;20417;-72
2023/03/31 04:18:36;;;;;;;3.17;0.90;;;10.00;99.90;;;;;;5057998;28;20032;-72
2023/03/31 04:21:05;;;;;;;2.00;0.85;;;10.00;99.90;;;;;;5075735;28;20062;-72
2023/03/31 04:23:32;;;;;;;3.08;1.33;;;10.00;99.90;;;;;;5055592;28;20049;-72
2023/03/31 04:25:58;;;;;;;5.85;1.45;;;10.00;99.90;;;;;;5075720;28;20042;-72
2023/03/31 04:28:25;;;;;;;2.88;0.95;;;10.00;99.90;;;;;;5053427;28;20066;-72
2023/03/31 04:30:57;;;;;;;2.60;0.98;;;9.90;99.90;;;;;;5055435;28;20115;-72
2023/03/31 04:33:23;;;;;;;2.42;1.10;;;10.00;99.90;;;;;;5104828;27;20511;-72
2023/03/31 04:35:48;;;;;;;5.78;1.23;;;10.00;99.90;;;;;;5086601;28;20043;-72
2023/03/31 04:38:26;;;;;;;2.88;0.93;;;9.90;99.90;;;;;;5073699;28;20040;-72
2023/03/31 04:40:52;;;;;;;3.38;0.95;;;10.00;99.90;;;;;;5070088;28;20122;-72
2023/03/31 04:43:19;;;;;;;4.70;1.20;;;10.00;99.90;;;;;;5069816;28;20044;-72
2023/03/31 04:45:45;;;;;;;2.83;1.23;;;10.00;99.90;;;;;;5073183;28;20032;-72
2023/03/31 04:48:11;;;;;;;5.97;1.00;;;10.00;99.90;;;;;;5105704;27;20039;-72
2023/03/31 04:50:37;;;;;;;6.00;1.40;;;10.00;99.90;;;;;;5071331;28;20535;-72
2023/03/31 04:53:04;;;;;;;2.50;1.00;;;10.00;99.90;;;;;;5053000;28;20028;-72
2023/03/31 04:55:30;;;;;;;3.08;0.80;;;10.00;99.90;;;;;;5068503;28;20081;-72
2023/03/31 04:57:56;;;;;;;5.45;1.15;;;10.00;99.90;;;;;;5069238;28;20494;-72
2023/03/31 05:00:22;;;;;;;4.65;1.10;;;10.00;99.90;;;;;;5057760;28;20043;-72
2023/03/31 05:02:48;;;;;;;3.45;1.08;;;10.00;99.90;;;;;;5069439;28;20041;-72
2023/03/31 05:05:14;;;;;;;2.80;0.98;;;10.00;99.90;;;;;;5071321;28;20036;-72
2023/03/31 05:07:40;;;;;;;3.65;0.80;;;10.00;99.90;;;;;;5073019;28;20554;-72
2023/03/31 05:10:06;;;;;;;2.83;1.08;;;10.10;99.90;;;;;;5071598;28;20040;-73
2023/03/31 05:12:38;;;;;;;2.63;1.10;;;10.10;99.90;;;;;;5059717;28;20035;-73
2023/03/31 05:15:06;;;;;;;3.85;1.17;;;10.00;99.90;;;;;;5072508;28;20438;-72
2023/03/31 05:17:33;;;;;;;3.78;1.20;;;10.00;99.90;;;;;;5057917;28;20433;-72
2023/03/31 05:19:59;;;;;;;5.82;1.02;;;10.00;99.90;;;;;;5071505;28;20169;-72
2023/03/31 05:22:25;;;;;;;3.28;0.90;;;10.00;99.90;;;;;;5069551;28;20059;-72
2023/03/31 05:24:54;;;;;;;3.35;0.80;;;10.00;99.90;;;;;;5078452;28;20126;-72
2023/03/31 05:27:20;;;;;;;4.40;1.00;;;10.00;99.90;;;;;;5077964;28;20149;-72
2023/03/31 05:29:46;;;;;;;4.10;1.15;;;10.00;99.90;;;;;;5075274;28;20047;-72
2023/03/31 05:32:12;;;;;;;2.08;0.85;;;10.00;99.90;;;;;;5080051;28;20032;-72
2023/03/31 05:34:37;;;;;;;1.52;0.80;;;10.00;99.90;;;;;;5066971;28;20040;-72
2023/03/31 05:37:03;;;;;;;1.70;0.70;;;10.00;99.90;;;;;;5107345;27;20063;-72
2023/03/31 05:39:31;;;;;;;1.92;0.60;;;10.00;99.90;;;;;;5074656;28;20044;-72
2023/03/31 05:41:58;;;;;;;3.10;1.02;;;10.00;99.90;;;;;;5077912;28;20464;-72
2023/03/31 05:44:26;;;;;;;2.22;1.00;;;10.00;99.90;;;;;;5073283;28;20037;-72
2023/03/31 05:46:52;;;;;;;3.45;1.08;;;10.00;99.90;;;;;;5072861;28;20362;-72
2023/03/31 05:49:17;;;;;;;5.90;1.40;;;10.00;99.90;;;;;;5069417;28;20089;-72
2023/03/31 05:51:43;;;;;;;2.45;0.70;;;10.00;99.90;;;;;;5069855;28;20040;-72
2023/03/31 05:54:09;;;;;;;3.63;0.70;;;10.00;99.90;;;;;;5075028;28;20067;-72
2023/03/31 05:56:34;;;;;;;5.03;1.17;;;10.00;99.90;;;;;;5073532;28;20135;-72
2023/03/31 05:59:00;;;;;;;3.83;1.10;;;10.00;99.90;;;;;;5068395;28;20036;-72
2023/03/31 06:01:26;;;;;;;2.97;1.27;;;10.00;99.90;;;;;;5069335;28;20040;-72
2023/03/31 06:03:52;;;;;;;1.90;1.10;;;10.00;99.90;;;;;;5072212;28;20458;-72
2023/03/31 06:06:19;;;;;;;5.28;1.25;;;10.00;99.90;;;;;;5072323;28;20056;-72
2023/03/31 06:08:46;;;;;;;2.28;1.10;;;10.00;99.90;;;;;;5076115;28;20040;-72
2023/03/31 06:11:15;;;;;;;4.82;1.15;;;10.00;99.90;;;;;;5066866;28;20047;-72
2023/03/31 06:13:42;;;;;;;4.25;1.38;;;10.00;99.90;;;;;;5074120;28;20059;-72
2023/03/31 06:16:10;;;;;;;3.08;1.10;;;10.00;99.90;;;;;;5049838;28;20051;-72
2023/03/31 06:18:35;;;;;;;2.60;0.75;;;10.00;99.90;;;;;;5084325;28;20032;-73
2023/03/31 06:21:02;;;;;;;3.05;1.30;;;10.00;99.90;;;;;;5083738;28;20048;-72
2023/03/31 06:23:28;;;;;;;1.42;0.70;;;10.00;99.90;;;;;;5067997;28;20043;-72
2023/03/31 06:26:02;;;;;;;2.28;0.80;;;10.00;99.90;;;;;;5069517;28;20700;-72
2023/03/31 06:28:29;;;;;;;3.53;1.27;;;10.00;99.90;;;;;;5070462;28;20025;-72
2023/03/31 06:31:06;;;;;;;2.70;1.10;;;10.00;99.90;;;;;;5083564;28;20040;-72
2023/03/31 06:33:33;;;;;;;2.80;0.70;;;10.00;99.90;;;;;;5063215;28;20052;-72
2023/03/31 06:36:00;;;;;;;2.65;0.90;;;10.00;99.90;;;;;;5065159;28;20498;-72
2023/03/31 06:38:26;;;;;;;3.47;1.15;;;10.00;99.90;;;;;;5065192;28;20158;-72
2023/03/31 06:40:53;;;;;;;2.45;0.82;;;10.00;99.90;;;;;;5066743;28;20083;-74
2023/03/31 06:43:19;;;;;;;2.25;0.90;;;10.00;99.90;;;;;;5065274;28;20047;-72
2023/03/31 06:45:45;;;;;;;3.38;0.77;;;10.00;99.90;;;;;;5068226;28;20036;-72
2023/03/31 06:48:11;;;;;;;3.05;0.85;;;10.00;99.90;;;;;;5068831;28;20033;-72
2023/03/31 06:50:38;;;;;;;6.20;1.20;;;10.00;99.90;;;;;;5098118;27;20048;-72
2023/03/31 06:53:04;;;;;;;4.43;1.45;;;10.00;99.90;;;;;;5105227;27;20502;-72
2023/03/31 06:55:31;;;;;;;1.63;0.80;;;10.10;99.90;;;;;;5062885;28;20526;-72
2023/03/31 06:57:56;;;;;;;4.15;1.13;;;10.10;99.90;;;;;;5064109;28;20040;-71
2023/03/31 07:00:24;;;;;;;3.55;0.63;;;10.10;99.90;;;;;;5070530;28;20073;-72
2023/03/31 07:02:50;;;;;;;3.40;0.85;;;10.10;99.90;;;;;;5075430;28;20056;-71
2023/03/31 07:05:17;;;;;;;2.08;0.80;;;10.10;99.90;;;;;;5053701;28;20496;-72
2023/03/31 07:07:42;;;;;;;2.10;0.60;;;10.10;99.90;;;;;;5064718;28;20060;-72
2023/03/31 07:10:08;;;;;;;3.35;1.02;;;10.10;99.90;;;;;;5062886;28;20052;-71
2023/03/31 07:12:34;;;;;;;3.47;1.10;;;10.10;99.90;;;;;;5069481;28;20076;-71
2023/03/31 07:14:59;;;;;;;1.70;0.63;;;10.10;99.90;;;;;;5065168;28;20481;-72
2023/03/31 07:17:25;;;;;;;3.25;1.08;;;10.10;99.90;;;;;;5064634;28;20131;-72
2023/03/31 07:19:51;;;;;;;6.20;1.52;;;10.10;99.90;;;;;;5100791;28;20037;-72
2023/03/31 07:22:16;;;;;;;3.85;1.13;;;10.10;99.90;;;;;;5069150;28;20044;-71
2023/03/31 07:24:42;;;;;;;1.77;0.93;;;10.10;99.90;;;;;;5065211;28;20067;-72
2023/03/31 07:27:09;;;;;;;3.15;1.35;;;10.10;99.90;;;;;;5067640;28;20037;-71
2023/03/31 07:29:35;;;;;;;7.10;1.30;;;10.10;99.90;;;;;;5104710;27;20066;-72
2023/03/31 07:32:00;;;;;;;1.75;0.90;;;10.10;99.90;;;;;;5076173;28;20036;-71
2023/03/31 07:34:26;;;;;;;2.15;0.82;;;10.10;99.90;;;;;;5067379;28;20044;-72
2023/03/31 07:36:54;;;;;;;3.22;0.70;;;10.20;99.90;;;;;;5069245;28;20500;-72
2023/03/31 07:39:21;;;;;;;2.28;0.90;;;10.10;99.90;;;;;;5054054;28;20045;-71
2023/03/31 07:41:47;;;;;;;3.42;1.00;;;10.20;99.90;;;;;;5069043;28;20033;-71
2023/03/31 07:44:13;;;;;;;2.28;0.70;;;10.10;99.90;;;;;;5068674;28;20040;-71
2023/03/31 07:46:38;;;;;;;1.40;0.50;;;10.10;99.90;;;;;;5079806;28;20028;-72
2023/03/31 07:49:05;;;;;;;1.55;0.73;;;10.10;99.90;;;;;;5069424;28;20033;-72
2023/03/31 07:51:31;;;;;;;2.58;0.90;;;10.10;99.90;;;;;;5073317;28;20067;-72
2023/03/31 07:53:57;;;;;;;1.40;0.70;;;10.10;99.90;;;;;;5070862;28;20048;-72
2023/03/31 07:56:24;;;;;;;3.45;0.80;;;10.10;99.90;;;;;;5064401;28;20047;-72
2023/03/31 07:58:51;;;;;;;1.83;0.57;;;10.20;99.90;;;;;;5070444;28;20040;-72
2023/03/31 08:01:19;;;;;;;2.95;0.80;;;10.10;99.90;;;;;;5089794;27;20048;-72
2023/03/31 08:03:46;;;;;;;2.00;0.70;;;10.20;99.90;;;;;;5049061;28;20080;-72
2023/03/31 08:06:18;;;;;;;4.20;1.20;;;10.10;99.90;;;;;;5075091;28;20032;-72
2023/03/31 08:08:44;;;;;;;3.25;0.52;;;10.20;99.90;;;;;;5089211;28;20497;-72
2023/03/31 08:11:09;;;;;;;2.80;0.77;;;10.20;99.90;;;;;;5048443;28;20043;-72
2023/03/31 08:13:35;;;;;;;3.55;0.98;;;10.20;99.90;;;;;;5066215;28;20059;-72
2023/03/31 08:16:02;;;;;;;1.83;0.80;;;10.30;99.90;;;;;;5071492;28;20040;-72
2023/03/31 08:18:27;;;;;;;1.02;0.50;;;10.30;99.90;;;;;;5098867;27;20075;-72
2023/03/31 08:20:53;;;;;;;2.33;1.10;;;10.30;99.90;;;;;;5073419;28;20549;-72
2023/03/31 08:23:18;;;;;;;1.42;0.70;;;10.30;99.90;;;;;;5069926;28;20056;-72
2023/03/31 08:25:44;;;;;;;3.25;1.00;;;10.30;99.90;;;;;;5077309;28;20032;-72
2023/03/31 08:28:12;;;;;;;2.97;0.77;;;10.30;99.90;;;;;;5066603;28;20044;-72
2023/03/31 08:30:39;;;;;;;2.13;1.00;;;10.40;99.90;;;;;;5080769;28;20120;-72
2023/03/31 08:33:06;;;;;;;3.30;1.08;;;10.40;99.90;;;;;;5070290;28;20133;-72
2023/03/31 08:35:33;;;;;;;2.17;1.00;;;10.40;99.90;;;;;;5072224;28;20528;-72
2023/03/31 08:37:58;;;;;;;10.13;1.40;;;10.40;99.90;;;;;;5070607;28;20036;-72
2023/03/31 08:40:27;;;;;;;1.67;0.80;;;10.40;99.90;;;;;;5066777;28;20043;-72
2023/03/31 08:42:56;;;;;;;2.65;0.73;;;10.50;99.90;;;;;;5072798;28;20128;-76
2023/03/31 08:45:55;;;;;;;1.98;0.75;;;10.50;99.90;;;;;;5052333;28;20044;-76
2023/03/31 08:48:28;;;;;;;4.70;0.88;;;10.50;99.90;;;;;;5027440;28;20053;-72
2023/03/31 08:51:00;;;;;;;2.38;0.95;;;10.50;99.90;;;;;;5052428;28;20506;-72
2023/03/31 08:53:30;;;;;;;1.98;0.90;;;10.50;99.90;;;;;;5052546;28;20067;-72
2023/03/31 08:55:57;;;;;;;3.13;0.80;;;10.60;99.90;;;;;;5072153;28;20082;-72
2023/03/31 08:58:42;;;;;;;4.22;1.27;;;10.50;99.90;;;;;;5072880;28;20118;-72
2023/03/31 09:01:30;;;;;;;4.38;0.98;;;10.50;99.90;;;;;;5062742;28;20131;-72
2023/03/31 09:04:20;;;;;;;5.20;1.40;;;10.60;99.90;;;;;;5070716;28;20040;-72
2023/03/31 09:07:05;;;;;;;3.53;0.90;;;10.60;99.90;;;;;;5069322;28;20028;-72
2023/03/31 09:09:49;;;;;;;6.13;1.35;;;10.60;99.90;;;;;;5048353;28;20076;-73
2023/03/31 09:12:53;;;;;;;3.13;0.70;;;10.60;99.90;;;;;;5081811;27;20383;-72
2023/03/31 09:15:38;;;;;;;2.03;0.80;;;10.60;99.90;;;;;;5036157;28;20044;-72
2023/03/31 09:18:18;;;;;;;1.80;0.80;;;10.60;99.90;;;;;;5069009;28;20101;-73
2023/03/31 09:20:48;;;;;;;4.00;0.95;;;10.60;99.90;;;;;;5092027;27;20341;-73
2023/03/31 09:23:26;;;;;;;3.45;1.13;;;10.70;99.90;;;;;;5079042;28;20786;-75
2023/03/31 09:25:54;;;;;;;3.45;0.70;;;10.70;99.90;;;;;;5059941;28;20522;-74
2023/03/31 09:28:39;;;;;;;3.30;0.85;;;10.80;99.90;;;;;;5062696;28;20126;-74
2023/03/31 09:31:13;;;;;;;1.25;0.55;;;10.70;99.90;;;;;;5066787;28;20031;-75
2023/03/31 09:33:46;;;;;;;4.20;1.00;;;10.70;99.90;;;;;;5051192;28;20058;-73
2023/03/31 09:36:17;;;;;;;1.45;0.70;;;10.70;99.90;;;;;;5051389;28;20525;-76
2023/03/31 09:38:44;;;;;;;2.75;0.85;;;10.80;99.90;;;;;;5063660;28;20532;-72
2023/03/31 09:41:12;;;;;;;4.32;1.13;;;10.80;99.90;;;;;;5072984;28;20119;-72
2023/03/31 09:43:40;;;;;;;1.00;0.55;;;10.80;99.90;;;;;;5050623;28;20514;-72
2023/03/31 09:46:25;;;;;;;1.52;0.50;;;10.80;99.90;;;;;;5096589;27;21183;-72
2023/03/31 09:48:57;;;;;;;2.47;0.90;;;10.80;99.90;;;;;;5057225;28;20481;-72
2023/03/31 09:51:29;;;;;;;2.80;0.77;;;10.80;99.90;;;;;;5075942;28;20401;-72
2023/03/31 09:54:24;;;;;;;3.72;0.90;;;10.80;99.90;;;;;;5108377;27;20075;-72
2023/03/31 09:56:54;;;;;;;2.13;0.80;;;10.80;99.90;;;;;;5073950;28;20408;-72
2023/03/31 09:59:33;;;;;;;1.08;0.50;;;10.80;99.90;;;;;;5077438;28;20075;-72
2023/03/31 10:02:02;;;;;;;1.63;0.45;;;10.80;99.90;;;;;;5060132;28;20058;-72
2023/03/31 10:04:33;;;;;;;1.48;0.90;;;10.90;99.90;;;;;;5063533;28;20228;-72
2023/03/31 10:07:00;;;;;;;1.88;0.70;;;10.80;99.90;;;;;;5061393;28;20047;-72
2023/03/31 10:09:31;;;;;;;1.30;0.68;;;10.80;99.90;;;;;;5067051;28;20328;-72
2023/03/31 10:12:03;;;;;;;2.10;0.68;;;10.80;99.90;;;;;;5083794;28;20056;-72
2023/03/31 10:14:39;;;;;;;1.73;0.55;;;10.90;99.90;;;;;;5064520;28;20091;-72
2023/03/31 10:17:06;;;;;;;0.93;0.43;;;10.90;99.90;;;;;;5080855;28;20517;-72
2023/03/31 10:19:39;;;;;;;2.00;0.60;;;11.00;99.90;;;;;;5052063;28;20067;-72
2023/03/31 10:22:14;;;;;;;1.42;0.70;;;11.00;99.90;;;;;;5062057;28;20463;-72
2023/03/31 10:24:42;;;;;;;2.83;0.70;;;11.10;99.90;;;;;;5089557;28;20033;-72
2023/03/31 10:27:21;;;;;;;2.83;0.60;;;11.20;99.90;;;;;;5051385;28;20032;-72
2023/03/31 10:29:50;;;;;;;1.92;0.60;;;11.30;99.90;;;;;;5050159;28;20304;-72
2023/03/31 10:32:30;;;;;;;3.40;0.80;;;11.30;99.90;;;;;;5074188;28;20043;-72
2023/03/31 10:35:13;;;;;;;3.47;1.05;;;11.30;99.90;;;;;;5063456;28;20154;-72
2023/03/31 10:37:39;;;;;;;1.88;0.70;;;11.40;99.90;;;;;;5069574;28;20044;-72
2023/03/31 10:40:16;;;;;;;1.45;0.50;;;11.40;99.90;;;;;;5098604;27;20123;-72
2023/03/31 10:42:46;;;;;;;2.63;0.77;;;11.50;99.90;;;;;;5055179;28;20498;-72
2023/03/31 10:45:22;;;;;;;3.10;0.70;;;11.60;99.90;;;;;;5089412;28;20068;-72
2023/03/31 10:47:51;;;;;;;3.38;0.70;;;11.60;99.90;;;;;;5072015;28;20028;-72
2023/03/31 10:50:17;;;;;;;6.00;1.20;;;11.70;99.90;;;;;;5074990;28;20043;-72
2023/03/31 10:52:47;;;;;;;1.80;0.70;;;11.70;99.90;;;;;;5043156;28;20040;-72
2023/03/31 10:55:29;;;;;;;1.55;0.60;;;11.80;99.90;;;;;;5068623;28;20056;-72
2023/03/31 10:58:01;;;;;;;2.17;0.75;;;11.90;99.90;;;;;;5101569;28;20040;-72
2023/03/31 11:01:03;;;;;;;1.33;0.60;;;11.90;99.90;;;;;;5100820;28;20040;-72
2023/03/31 11:03:56;;;;;;;1.40;0.60;;;12.00;99.90;;;;;;5082302;28;20413;-72
2023/03/31 11:06:38;;;;;;;3.03;0.85;;;12.00;99.90;;;;;;5072062;28;20079;-72
2023/03/31 11:09:31;;;;;;;3.47;0.70;;;12.00;99.90;;;;;;5076873;28;20042;-72
2023/03/31 11:12:11;;;;;;;2.15;0.65;;;12.00;99.90;;;;;;5087186;28;20028;-72
2023/03/31 11:14:49;;;;;;;1.23;0.60;;;11.90;99.90;;;;;;5078333;28;20051;-72
2023/03/31 11:17:50;;;;;;;2.05;0.70;;;11.90;99.90;;;;;;5061787;28;20144;-72
2023/03/31 11:20:33;;;;;;;1.35;0.50;;;11.80;99.90;;;;;;5056793;28;20036;-72
2023/03/31 11:23:12;;;;;;;3.80;0.80;;;11.70;99.90;;;;;;5071278;28;20127;-72
2023/03/31 11:26:04;;;;;;;1.10;0.68;;;11.70;99.90;;;;;;5104929;27;20568;-72
2023/03/31 11:29:01;;;;;;;2.42;0.60;;;11.70;99.90;;;;;;5069594;28;20683;-72
2023/03/31 11:32:15;;;;;;;4.20;0.70;;;11.80;99.90;;;;;;5073626;28;20423;-72
2023/03/31 11:35:06;;;;;;;1.80;0.60;;;11.90;99.90;;;;;;5012805;28;20493;-72
2023/03/31 11:38:16;;;;;;;2.65;0.50;;;11.80;99.90;;;;;;5070279;28;20507;-72
2023/03/31 11:41:06;;;;;;;1.35;0.90;;;11.80;99.90;;;;;;5102076;27;20106;-72
2023/03/31 11:43:37;;;;;;;3.17;0.77;;;11.90;99.90;;;;;;5076130;28;20098;-72
2023/03/31 11:46:12;;;;;;;2.30;0.85;;;11.90;99.90;;;;;;5085512;28;20037;-72
2023/03/31 11:48:52;;;;;;;1.65;0.85;;;11.90;99.90;;;;;;5065823;28;20533;-73
2023/03/31 11:51:46;;;;;;;3.47;0.73;;;11.90;99.90;;;;;;5083164;27;20032;-73
2023/03/31 11:54:30;;;;;;;2.25;0.80;;;11.90;99.90;;;;;;5060785;28;20101;-72
2023/03/31 11:56:56;;;;;;;2.65;0.82;;;11.90;99.90;;;;;;5069724;28;20432;-72
2023/03/31 11:59:28;;;;;;;3.35;1.00;;;12.00;99.90;;;;;;5098345;27;20054;-72
2023/03/31 12:02:09;;;;;;;3.40;0.98;;;12.00;99.90;;;;;;5069742;28;20048;-72
2023/03/31 12:04:40;;;;;;;2.00;0.93;;;12.10;99.90;;;;;;5083981;28;20042;-72
2023/03/31 12:07:14;;;;;;;1.83;0.68;;;12.20;99.90;;;;;;5080080;28;20062;-72
2023/03/31 12:10:04;;;;;;;2.08;0.70;;;12.20;99.90;;;;;;5074455;28;20067;-72
2023/03/31 12:12:34;;;;;;;1.52;0.70;;;12.20;99.90;;;;;;5072500;28;20123;-72
2023/03/31 12:15:15;;;;;;;1.40;0.77;;;12.20;99.90;;;;;;5061491;28;20044;-75
2023/03/31 12:17:46;;;;;;;2.92;0.80;;;12.20;99.90;;;;;;5050521;28;20474;-72
2023/03/31 12:20:43;;;;;;;5.55;0.95;;;12.20;99.90;;;;;;5077521;28;20043;-73
2023/03/31 12:23:17;;;;;;;2.22;0.70;;;12.30;99.90;;;;;;5065528;28;20490;-72
2023/03/31 12:26:10;;;;;;;2.50;0.98;;;12.30;99.90;;;;;;5068795;28;20040;-72
2023/03/31 12:28:39;;;;;;;1.92;0.75;;;12.30;99.90;;;;;;5068992;28;20039;-72
2023/03/31 12:31:09;;;;;;;3.75;0.88;;;12.30;99.90;;;;;;5070093;28;20078;-72
2023/03/31 12:33:47;;;;;;;1.70;0.75;;;12.30;99.90;;;;;;5070505;28;20501;-72
2023/03/31 12:36:29;;;;;;;5.50;1.58;;;12.40;99.90;;;;;;5064676;28;20035;-72
2023/03/31 12:39:08;;;;;;;3.33;1.02;;;12.30;99.90;;;;;;5054265;28;20120;-72
2023/03/31 12:42:03;;;;;;;4.03;1.00;;;12.40;99.90;;;;;;5070527;28;20044;-72
2023/03/31 12:44:55;;;;;;;1.45;0.60;;;12.40;99.90;;;;;;5071601;28;20037;-72
2023/03/31 12:47:33;;;;;;;2.72;1.05;;;12.40;99.90;;;;;;5051961;28;20043;-72
2023/03/31 12:50:08;;;;;;;3.30;1.10;;;12.50;99.90;;;;;;5051954;28;20051;-72
2023/03/31 12:53:00;;;;;;;2.55;0.82;;;12.50;99.90;;;;;;5067238;28;20049;-72
2023/03/31 12:55:37;;;;;;;2.35;0.80;;;12.60;99.90;;;;;;5057631;28;20163;-72
2023/03/31 12:58:21;;;;;;;2.10;0.90;;;12.60;99.90;;;;;;5066007;28;21397;-72
2023/03/31 13:01:17;;;;;;;3.13;0.90;;;12.60;99.90;;;;;;5065240;28;20443;-72
2023/03/31 13:04:17;;;;;;;3.63;1.20;;;12.60;99.90;;;;;;5061609;28;20051;-72
2023/03/31 13:06:53;;;;;;;3.47;1.10;;;12.60;99.90;;;;;;5061080;28;20044;-72
2023/03/31 13:09:18;;;;;;;1.88;0.95;;;12.70;99.90;;;;;;5072172;28;20041;-72
2023/03/31 13:11:47;;;;;;;3.13;0.77;;;12.70;99.90;;;;;;5066364;28;20134;-70
2023/03/31 13:14:32;;;;;;;2.72;0.80;;;12.60;99.90;;;;;;5065039;28;20112;-70
2023/03/31 13:17:32;;;;;;;3.05;1.10;;;12.50;99.90;;;;;;5088247;28;20050;-70
2023/03/31 13:20:23;;;;;;;2.92;0.88;;;12.50;99.90;;;;;;5051117;28;20097;-70
2023/03/31 13:23:03;;;;;;;2.60;0.90;;;12.50;99.90;;;;;;5093113;28;20046;-70